createdAt,value
2019-01-27T00:01:37.565Z,17.80
2019-01-27T00:04:07.482Z,24.87
2019-01-27T00:06:36.853Z,24.10
2019-01-27T00:09:10.130Z,24.60
2019-01-27T00:11:39.535Z,21.50
2019-01-27T00:14:08.998Z,20.07
2019-01-27T00:16:38.403Z,22.37
2019-01-27T00:19:07.873Z,24.30
2019-01-27T00:21:37.251Z,24.17
2019-01-27T00:24:06.727Z,31.93
2019-01-27T00:26:36.242Z,33.67
2019-01-27T00:29:05.837Z,32.50
2019-01-27T00:31:35.282Z,30.20
2019-01-27T00:34:05.332Z,25.83
2019-01-27T00:36:34.806Z,23.07
2019-01-27T00:39:06.893Z,22.17
2019-01-27T00:41:36.318Z,24.77
2019-01-27T00:44:05.803Z,21.30
2019-01-27T00:46:35.170Z,21.43
2019-01-27T00:49:04.964Z,24.17
2019-01-27T00:51:34.444Z,25.40
2019-01-27T00:54:04.109Z,20.97
2019-01-27T00:56:35.826Z,21.87
2019-01-27T00:59:05.249Z,24.73
2019-01-27T01:01:34.734Z,21.90
2019-01-27T01:04:04.738Z,20.37
2019-01-27T01:06:35.263Z,19.23
2019-01-27T01:09:08.180Z,15.67
2019-01-27T01:11:37.726Z,20.00
2019-01-27T01:14:07.611Z,15.83
2019-01-27T01:16:37.245Z,15.97
2019-01-27T01:19:06.946Z,15.97
2019-01-27T01:21:36.408Z,19.17
2019-01-27T01:24:06.406Z,32.10
2019-01-27T01:26:36.060Z,34.20
2019-01-27T01:29:05.549Z,25.97
2019-01-27T01:31:34.986Z,25.10
2019-01-27T01:34:04.570Z,21.03
2019-01-27T01:36:34.124Z,18.53
2019-01-27T01:39:05.170Z,18.33
2019-01-27T01:41:34.578Z,18.07
2019-01-27T01:44:04.079Z,17.10
2019-01-27T01:46:33.450Z,16.20
2019-01-27T01:49:02.846Z,16.93
2019-01-27T01:51:32.320Z,18.83
2019-01-27T01:54:01.693Z,24.37
2019-01-27T01:56:31.267Z,22.13
2019-01-27T01:59:00.710Z,22.67
2019-01-27T02:01:30.110Z,19.77
2019-01-27T02:03:59.489Z,12.87
2019-01-27T02:06:28.912Z,12.10
2019-01-27T02:08:58.391Z,11.30
2019-01-27T02:11:27.856Z,11.47
2019-01-27T02:13:57.274Z,12.17
2019-01-27T02:16:26.722Z,12.00
2019-01-27T02:18:56.179Z,10.60
2019-01-27T02:21:25.695Z,9.47
2019-01-27T02:23:55.192Z,10.37
2019-01-27T02:26:24.655Z,10.87
2019-01-27T02:28:54.076Z,11.03
2019-01-27T02:31:23.502Z,10.50
2019-01-27T02:33:52.954Z,10.27
2019-01-27T02:36:22.433Z,10.27
2019-01-27T02:38:51.888Z,9.33
2019-01-27T02:41:21.259Z,11.17
2019-01-27T02:43:50.657Z,11.43
2019-01-27T02:46:19.997Z,11.10
2019-01-27T02:48:49.464Z,10.77
2019-01-27T02:51:18.927Z,11.13
2019-01-27T02:53:48.366Z,11.33
2019-01-27T02:56:17.844Z,14.33
2019-01-27T02:58:47.335Z,22.73
2019-01-27T03:01:16.783Z,52.20
2019-01-27T03:03:46.220Z,54.93
2019-01-27T03:06:33.080Z,41.10
2019-01-27T03:09:13.647Z,28.17
2019-01-27T03:11:49.991Z,30.70
2019-01-27T03:14:20.570Z,32.33
2019-01-27T03:16:51.332Z,25.20
2019-01-27T03:19:20.874Z,30.33
2019-01-27T03:21:50.208Z,33.43
2019-01-27T03:24:19.597Z,46.67
2019-01-27T03:26:49.024Z,43.00
2019-01-27T03:29:18.367Z,55.63
2019-01-27T03:31:47.801Z,55.63
2019-01-27T03:34:17.267Z,29.47
2019-01-27T03:36:46.674Z,29.97
2019-01-27T03:39:16.213Z,29.10
2019-01-27T03:41:45.636Z,30.30
2019-01-27T03:44:15.045Z,28.40
2019-01-27T03:46:44.503Z,30.57
2019-01-27T03:49:14.079Z,28.57
2019-01-27T03:51:43.540Z,30.13
2019-01-27T03:54:12.994Z,32.53
2019-01-27T03:56:42.358Z,32.57
2019-01-27T03:59:11.766Z,33.40
2019-01-27T04:01:41.231Z,33.00
2019-01-27T04:04:10.698Z,29.53
2019-01-27T04:06:40.162Z,30.37
2019-01-27T04:09:11.445Z,30.13
2019-01-27T04:11:40.947Z,27.87
2019-01-27T04:14:10.527Z,29.40
2019-01-27T04:16:39.904Z,29.57
2019-01-27T04:19:09.259Z,28.67
2019-01-27T04:21:38.643Z,28.73
2019-01-27T04:24:08.042Z,28.33
2019-01-27T04:26:37.516Z,27.17
2019-01-27T04:29:07.229Z,27.37
2019-01-27T04:31:36.666Z,27.83
2019-01-27T04:34:06.431Z,28.73
2019-01-27T04:36:35.911Z,28.17
2019-01-27T04:39:09.466Z,27.60
2019-01-27T04:41:38.807Z,25.73
2019-01-27T04:44:08.256Z,27.23
2019-01-27T04:46:37.637Z,25.47
2019-01-27T04:49:07.030Z,26.80
2019-01-27T04:51:36.467Z,28.10
2019-01-27T04:54:05.926Z,24.30
2019-01-27T04:56:35.403Z,22.20
2019-01-27T04:59:05.229Z,23.37
2019-01-27T05:01:34.668Z,23.10
2019-01-27T05:04:12.461Z,23.20
2019-01-27T05:06:41.926Z,24.87
2019-01-27T05:09:11.314Z,24.60
2019-01-27T05:11:40.738Z,25.27
2019-01-27T05:14:10.240Z,25.20
2019-01-27T05:16:39.672Z,27.60
2019-01-27T05:19:09.136Z,28.10
2019-01-27T05:21:38.547Z,28.13
2019-01-27T05:24:08.057Z,27.10
2019-01-27T05:26:37.633Z,26.40
2019-01-27T05:29:07.038Z,25.63
2019-01-27T05:31:36.439Z,25.37
2019-01-27T05:34:06.104Z,22.83
2019-01-27T05:36:35.557Z,21.90
2019-01-27T05:39:08.404Z,22.10
2019-01-27T05:41:37.840Z,21.50
2019-01-27T05:44:07.302Z,21.00
2019-01-27T05:46:36.718Z,21.63
2019-01-27T05:49:06.228Z,22.10
2019-01-27T05:51:35.649Z,22.60
2019-01-27T05:54:05.722Z,22.80
2019-01-27T05:56:35.231Z,20.30
2019-01-27T05:59:04.685Z,19.30
2019-01-27T06:01:34.049Z,20.70
2019-01-27T06:04:03.447Z,19.30
2019-01-27T06:06:32.914Z,18.20
2019-01-27T06:09:02.288Z,18.93
2019-01-27T06:11:31.644Z,17.93
2019-01-27T06:14:01.020Z,16.93
2019-01-27T06:16:30.351Z,18.97
2019-01-27T06:18:59.759Z,21.43
2019-01-27T06:21:29.249Z,23.00
2019-01-27T06:23:58.667Z,22.10
2019-01-27T06:26:28.065Z,22.87
2019-01-27T06:28:57.425Z,21.60
2019-01-27T06:31:26.807Z,25.93
2019-01-27T06:34:02.909Z,24.23
2019-01-27T06:36:32.386Z,25.10
2019-01-27T06:39:01.807Z,23.63
2019-01-27T06:41:31.167Z,23.67
2019-01-27T06:44:00.547Z,26.60
2019-01-27T06:46:29.903Z,25.03
2019-01-27T06:48:59.302Z,27.40
2019-01-27T06:51:28.688Z,26.50
2019-01-27T06:53:58.145Z,26.77
2019-01-27T06:56:27.540Z,32.80
2019-01-27T06:59:31.061Z,26.97
2019-01-27T07:02:19.478Z,30.10
2019-01-27T07:05:07.882Z,25.80
2019-01-27T07:07:56.237Z,28.17
2019-01-27T07:10:45.515Z,28.37
2019-01-27T07:13:29.406Z,29.83
2019-01-27T07:16:17.681Z,29.73
2019-01-27T07:19:06.057Z,30.20
2019-01-27T07:21:56.163Z,31.70
2019-01-27T07:24:47.843Z,32.03
2019-01-27T07:27:45.060Z,30.20
2019-01-27T07:30:26.405Z,32.03
2019-01-27T07:33:13.625Z,35.10
2019-01-27T07:35:50.858Z,38.70
2019-01-27T07:38:44.915Z,32.70
2019-01-27T07:41:23.871Z,31.27
2019-01-27T07:44:01.192Z,28.73
2019-01-27T07:46:55.677Z,27.83
2019-01-27T07:49:31.596Z,27.03
2019-01-27T07:52:12.965Z,28.93
2019-01-27T07:55:01.332Z,27.40
2019-01-27T07:57:55.566Z,26.93
2019-01-27T08:00:37.850Z,25.53
2019-01-27T08:03:14.341Z,24.03
2019-01-27T08:05:58.725Z,24.37
2019-01-27T08:08:36.122Z,26.47
2019-01-27T08:11:23.553Z,26.87
2019-01-27T08:14:10.470Z,27.37
2019-01-27T08:16:58.796Z,25.03
2019-01-27T08:19:56.331Z,29.03
2019-01-27T08:22:55.071Z,31.93
2019-01-27T08:25:43.455Z,32.57
2019-01-27T08:28:33.828Z,38.30
2019-01-27T08:31:25.141Z,38.40
2019-01-27T08:34:12.131Z,35.77
2019-01-27T08:36:59.081Z,37.53
2019-01-27T08:39:50.313Z,39.70
2019-01-27T08:42:38.645Z,42.23
2019-01-27T08:45:14.413Z,41.70
2019-01-27T08:47:43.928Z,40.43
2019-01-27T08:50:18.200Z,39.03
2019-01-27T08:52:47.669Z,39.00
2019-01-27T08:55:17.197Z,41.03
2019-01-27T08:57:46.691Z,43.37
2019-01-27T09:00:20.650Z,49.23
2019-01-27T09:03:11.915Z,43.90
2019-01-27T09:05:59.063Z,42.93
2019-01-27T09:08:46.027Z,46.80
2019-01-27T09:11:31.051Z,43.43
2019-01-27T09:14:18.129Z,47.70
2019-01-27T09:17:12.407Z,56.00
2019-01-27T09:19:53.701Z,54.20
2019-01-27T09:22:29.204Z,58.07
2019-01-27T09:25:26.326Z,56.37
2019-01-27T09:28:17.161Z,55.60
2019-01-27T09:31:17.612Z,60.03
2019-01-27T09:34:15.089Z,62.40
2019-01-27T09:37:15.442Z,62.33
2019-01-27T09:40:02.738Z,63.63
2019-01-27T09:42:59.843Z,70.80
2019-01-27T09:45:57.766Z,68.10
2019-01-27T09:48:27.515Z,68.83
2019-01-27T09:51:14.479Z,75.57
2019-01-27T09:54:17.928Z,79.10
2019-01-27T09:56:59.882Z,84.50
2019-01-27T09:59:46.655Z,84.20
2019-01-27T10:02:34.642Z,80.27
2019-01-27T10:05:04.522Z,85.40
2019-01-27T10:07:59.009Z,79.43
2019-01-27T10:10:50.298Z,73.77
2019-01-27T10:13:41.665Z,75.87
2019-01-27T10:16:24.858Z,75.87
2019-01-27T10:19:01.451Z,78.03
2019-01-27T10:21:48.281Z,78.63
2019-01-27T10:24:54.793Z,77.83
2019-01-27T10:27:40.501Z,79.50
2019-01-27T10:30:22.379Z,80.87
2019-01-27T10:33:02.528Z,81.33
2019-01-27T10:35:49.491Z,79.43
2019-01-27T10:38:34.257Z,78.37
2019-01-27T10:41:12.836Z,77.23
2019-01-27T10:44:03.139Z,81.33
2019-01-27T10:47:06.793Z,83.07
2019-01-27T10:49:42.675Z,79.03
2019-01-27T10:52:29.023Z,81.57
2019-01-27T10:55:07.374Z,78.67
2019-01-27T10:58:01.691Z,82.77
2019-01-27T11:00:48.641Z,77.50
2019-01-27T11:03:37.060Z,80.10
2019-01-27T11:06:25.623Z,76.57
2019-01-27T11:09:09.254Z,73.43
2019-01-27T11:11:56.205Z,75.10
2019-01-27T11:14:35.197Z,79.57
2019-01-27T11:17:15.828Z,77.73
2019-01-27T11:20:02.478Z,77.10
2019-01-27T11:22:56.662Z,92.20
2019-01-27T11:25:33.925Z,77.37
2019-01-27T11:28:22.220Z,77.17
2019-01-27T11:31:07.283Z,79.50
2019-01-27T11:33:47.294Z,78.43
2019-01-27T11:36:26.864Z,74.27
2019-01-27T11:39:27.093Z,72.70
2019-01-27T11:42:24.054Z,70.80
2019-01-27T11:45:12.591Z,72.87
2019-01-27T11:48:06.945Z,71.90
2019-01-27T11:50:50.260Z,73.00
2019-01-27T11:53:19.650Z,75.50
2019-01-27T11:55:49.047Z,80.20
2019-01-27T11:58:18.480Z,79.40
2019-01-27T12:00:51.851Z,77.17
2019-01-27T12:03:21.380Z,74.50
2019-01-27T12:05:50.788Z,74.97
2019-01-27T12:08:20.423Z,72.43
2019-01-27T12:10:49.880Z,70.17
2019-01-27T12:13:19.233Z,75.40
2019-01-27T12:15:48.633Z,78.80
2019-01-27T12:18:18.172Z,75.43
2019-01-27T12:20:47.706Z,80.83
2019-01-27T12:23:17.143Z,80.73
2019-01-27T12:25:46.609Z,77.37
2019-01-27T12:28:16.070Z,78.57
2019-01-27T12:30:45.523Z,79.37
2019-01-27T12:33:15.014Z,79.33
2019-01-27T12:35:44.465Z,79.70
2019-01-27T12:38:13.877Z,77.83
2019-01-27T12:40:43.304Z,74.47
2019-01-27T12:43:12.743Z,75.67
2019-01-27T12:45:42.276Z,73.40
2019-01-27T12:48:11.763Z,78.70
2019-01-27T12:50:41.150Z,77.40
2019-01-27T12:53:10.539Z,74.13
2019-01-27T12:55:39.934Z,78.20
2019-01-27T12:58:09.328Z,76.20
2019-01-27T13:00:45.084Z,75.83
2019-01-27T13:03:14.452Z,77.60
2019-01-27T13:05:43.913Z,72.93
2019-01-27T13:08:13.313Z,78.57
2019-01-27T13:10:42.722Z,75.60
2019-01-27T13:13:12.239Z,76.20
2019-01-27T13:15:41.689Z,78.30
2019-01-27T13:18:11.153Z,77.20
2019-01-27T13:20:41.088Z,78.53
2019-01-27T13:23:10.547Z,74.67
2019-01-27T13:25:39.914Z,76.33
2019-01-27T13:28:09.347Z,74.43
2019-01-27T13:30:38.751Z,74.80
2019-01-27T13:33:08.172Z,96.90
2019-01-27T13:35:38.993Z,93.87
2019-01-27T13:38:08.657Z,93.00
2019-01-27T13:40:38.132Z,80.67
2019-01-27T13:43:07.771Z,80.20
2019-01-27T13:45:37.244Z,76.27
2019-01-27T13:48:06.795Z,80.80
2019-01-27T13:50:36.285Z,81.83
2019-01-27T13:53:06.202Z,76.73
2019-01-27T13:55:35.605Z,75.10
2019-01-27T13:58:05.733Z,76.60
2019-01-27T14:00:36.850Z,76.00
2019-01-27T14:03:06.432Z,76.77
2019-01-27T14:05:35.811Z,75.67
2019-01-27T14:08:05.599Z,77.93
2019-01-27T14:10:35.087Z,75.20
2019-01-27T14:13:04.616Z,76.10
2019-01-27T14:15:35.238Z,74.80
2019-01-27T14:18:05.685Z,76.00
2019-01-27T14:20:35.117Z,74.43
2019-01-27T14:23:04.627Z,73.77
2019-01-27T14:25:33.986Z,72.67
2019-01-27T14:28:03.486Z,71.30
2019-01-27T14:30:35.693Z,71.23
2019-01-27T14:33:05.323Z,72.10
2019-01-27T14:35:34.798Z,71.50
2019-01-27T14:38:04.235Z,72.97
2019-01-27T14:40:33.682Z,71.93
2019-01-27T14:43:03.173Z,80.10
2019-01-27T14:45:32.614Z,73.03
2019-01-27T14:48:02.084Z,80.57
2019-01-27T14:50:36.881Z,74.43
2019-01-27T14:53:08.001Z,77.37
2019-01-27T14:55:37.387Z,73.37
2019-01-27T14:58:06.969Z,71.47
2019-01-27T15:00:38.894Z,73.57
2019-01-27T15:03:09.348Z,70.73
2019-01-27T15:05:38.906Z,74.57
2019-01-27T15:08:08.775Z,73.73
2019-01-27T15:10:39.075Z,76.57
2019-01-27T15:13:09.139Z,75.43
2019-01-27T15:15:38.746Z,75.00
2019-01-27T15:18:08.257Z,75.57
2019-01-27T15:20:43.964Z,73.27
2019-01-27T15:23:13.595Z,69.93
2019-01-27T15:25:43.174Z,71.50
2019-01-27T15:28:12.913Z,73.40
2019-01-27T15:30:42.390Z,73.53
2019-01-27T15:33:11.744Z,72.07
2019-01-27T15:35:41.359Z,72.33
2019-01-27T15:38:10.802Z,73.03
2019-01-27T15:40:40.303Z,73.63
2019-01-27T15:43:09.715Z,73.23
2019-01-27T15:45:39.125Z,79.07
2019-01-27T15:48:08.500Z,76.90
2019-01-27T15:50:37.953Z,74.50
2019-01-27T15:53:07.814Z,83.63
2019-01-27T15:55:37.765Z,80.13
2019-01-27T15:58:07.623Z,80.77
2019-01-27T16:00:38.521Z,79.40
2019-01-27T16:03:07.881Z,73.57
2019-01-27T16:05:37.297Z,72.50
2019-01-27T16:08:06.803Z,71.83
2019-01-27T16:10:36.318Z,71.63
2019-01-27T16:13:05.881Z,162.53
2019-01-27T16:15:35.757Z,85.60
2019-01-27T16:18:06.766Z,130.37
2019-01-27T16:20:36.148Z,90.10
2019-01-27T16:23:16.918Z,155.87
2019-01-27T16:25:46.372Z,94.03
2019-01-27T16:28:15.820Z,80.43
2019-01-27T16:31:06.992Z,83.40
2019-01-27T16:33:44.733Z,81.70
2019-01-27T16:36:14.206Z,83.00
2019-01-27T16:38:43.673Z,86.10
2019-01-27T16:41:13.069Z,80.73
2019-01-27T16:43:42.399Z,82.50
2019-01-27T16:46:11.790Z,98.23
2019-01-27T16:48:41.205Z,75.70
2019-01-27T16:51:10.759Z,79.97
2019-01-27T16:53:40.225Z,75.70
2019-01-27T16:56:09.650Z,80.87
2019-01-27T16:58:39.373Z,84.33
2019-01-27T17:01:08.812Z,80.43
2019-01-27T17:03:38.192Z,86.67
2019-01-27T17:06:07.797Z,86.67
2019-01-27T17:08:37.246Z,86.13
2019-01-27T17:11:06.712Z,79.23
2019-01-27T17:13:36.223Z,79.20
2019-01-27T17:16:06.265Z,77.37
2019-01-27T17:18:36.211Z,81.70
2019-01-27T17:21:05.859Z,77.40
2019-01-27T17:23:35.285Z,79.73
2019-01-27T17:26:06.301Z,81.37
2019-01-27T17:28:35.669Z,80.00
2019-01-27T17:31:05.212Z,77.13
2019-01-27T17:33:34.696Z,80.77
2019-01-27T17:36:04.255Z,78.80
2019-01-27T17:38:40.238Z,85.63
2019-01-27T17:41:04.801Z,84.13
2019-01-27T17:43:34.227Z,81.87
2019-01-27T17:46:06.766Z,82.67
2019-01-27T17:48:36.277Z,80.40
2019-01-27T17:51:05.736Z,78.20
2019-01-27T17:53:52.666Z,77.73
2019-01-27T17:56:22.030Z,74.93
2019-01-27T17:59:13.264Z,79.93
2019-01-27T18:02:03.965Z,71.63
2019-01-27T18:04:46.979Z,77.50
2019-01-27T18:07:44.416Z,76.30
2019-01-27T18:10:42.808Z,77.33
2019-01-27T18:13:26.086Z,74.10
2019-01-27T18:15:55.592Z,73.37
2019-01-27T18:18:25.068Z,72.33
2019-01-27T18:20:54.537Z,76.67
2019-01-27T18:23:24.014Z,77.17
2019-01-27T18:25:53.529Z,70.33
2019-01-27T18:28:22.994Z,73.60
2019-01-27T18:30:52.520Z,73.63
2019-01-27T18:33:21.972Z,71.60
2019-01-27T18:35:51.410Z,71.40
2019-01-27T18:38:20.920Z,73.67
2019-01-27T18:40:50.468Z,72.43
2019-01-27T18:43:19.941Z,73.20
2019-01-27T18:45:49.395Z,76.13
2019-01-27T18:48:18.780Z,76.73
2019-01-27T18:50:48.252Z,72.73
2019-01-27T18:53:39.413Z,75.90
2019-01-27T18:56:16.264Z,80.17
2019-01-27T18:59:03.297Z,80.10
2019-01-27T19:01:50.295Z,75.53
2019-01-27T19:04:30.819Z,76.63
2019-01-27T19:07:20.890Z,79.67
2019-01-27T19:10:18.154Z,75.83
2019-01-27T19:13:16.143Z,74.70
2019-01-27T19:16:03.253Z,70.67
2019-01-27T19:18:50.428Z,70.70
2019-01-27T19:21:27.875Z,72.30
2019-01-27T19:24:04.686Z,73.40
2019-01-27T19:26:51.766Z,71.97
2019-01-27T19:29:39.204Z,77.23
2019-01-27T19:32:19.439Z,74.40
2019-01-27T19:35:10.717Z,74.13
2019-01-27T19:38:02.078Z,69.37
2019-01-27T19:40:53.423Z,70.43
2019-01-27T19:43:50.874Z,72.47
2019-01-27T19:46:39.277Z,74.93
2019-01-27T19:49:30.417Z,76.20
2019-01-27T19:52:06.299Z,72.30
2019-01-27T19:54:51.500Z,72.50
2019-01-27T19:57:31.988Z,77.40
2019-01-27T20:00:20.174Z,73.73
2019-01-27T20:03:23.488Z,72.77
2019-01-27T20:06:10.388Z,71.10
2019-01-27T20:09:10.688Z,73.00
2019-01-27T20:11:52.814Z,74.20
2019-01-27T20:14:56.241Z,73.00
2019-01-27T20:17:33.291Z,76.70
2019-01-27T20:20:27.699Z,75.70
2019-01-27T20:23:14.821Z,80.33
2019-01-27T20:26:05.925Z,80.97
2019-01-27T20:28:57.091Z,80.73
2019-01-27T20:31:45.421Z,78.37
2019-01-27T20:34:22.215Z,75.30
2019-01-27T20:37:07.654Z,72.90
2019-01-27T20:39:53.910Z,74.33
2019-01-27T20:42:45.103Z,77.33
2019-01-27T20:45:42.501Z,72.73
2019-01-27T20:48:42.888Z,75.03
2019-01-27T20:51:29.071Z,77.20
2019-01-27T20:54:06.077Z,76.93
2019-01-27T20:57:06.210Z,76.90
2019-01-27T20:59:44.736Z,77.57
2019-01-27T21:02:33.145Z,77.37
2019-01-27T21:05:07.781Z,73.70
2019-01-27T21:07:58.771Z,72.37
2019-01-27T21:10:52.905Z,74.10
2019-01-27T21:13:27.499Z,73.27
2019-01-27T21:16:28.000Z,79.17
2019-01-27T21:19:05.614Z,78.37
2019-01-27T21:21:35.073Z,73.50
2019-01-27T21:24:04.939Z,74.20
2019-01-27T21:26:34.488Z,76.90
2019-01-27T21:29:04.002Z,76.33
2019-01-27T21:31:33.403Z,78.43
2019-01-27T21:34:02.877Z,78.03
2019-01-27T21:36:32.381Z,75.63
2019-01-27T21:39:01.803Z,77.10
2019-01-27T21:41:31.408Z,77.03
2019-01-27T21:44:00.768Z,78.93
2019-01-27T21:46:30.127Z,75.43
2019-01-27T21:48:59.491Z,78.07
2019-01-27T21:51:28.860Z,75.93
2019-01-27T21:53:58.246Z,77.67
2019-01-27T21:56:27.719Z,76.50
2019-01-27T21:58:57.245Z,81.47
2019-01-27T22:01:26.784Z,81.97
2019-01-27T22:03:56.206Z,87.33
2019-01-27T22:06:25.612Z,81.90
2019-01-27T22:08:55.062Z,77.63
2019-01-27T22:11:24.475Z,80.87
2019-01-27T22:13:54.759Z,80.03
2019-01-27T22:16:24.190Z,80.03
2019-01-27T22:18:53.633Z,75.67
2019-01-27T22:21:23.180Z,78.33
2019-01-27T22:23:52.622Z,84.97
2019-01-27T22:26:22.068Z,76.53
2019-01-27T22:28:51.491Z,76.00
2019-01-27T22:31:20.875Z,75.77
2019-01-27T22:33:50.314Z,79.07
2019-01-27T22:36:19.836Z,81.03
2019-01-27T22:38:49.333Z,85.00
2019-01-27T22:41:18.773Z,80.30
2019-01-27T22:43:48.163Z,81.53
2019-01-27T22:46:17.615Z,87.37
2019-01-27T22:48:46.981Z,87.27
2019-01-27T22:51:16.365Z,86.17
2019-01-27T22:53:45.767Z,86.97
2019-01-27T22:56:15.237Z,90.83
2019-01-27T22:58:44.608Z,91.73
2019-01-27T23:01:18.886Z,88.77
2019-01-27T23:03:55.496Z,83.10
2019-01-27T23:06:24.982Z,86.27
2019-01-27T23:08:54.495Z,86.70
2019-01-27T23:11:23.938Z,84.60
2019-01-27T23:13:53.394Z,83.03
2019-01-27T23:16:23.342Z,84.97
2019-01-27T23:18:52.856Z,90.03
2019-01-27T23:21:22.379Z,89.67
2019-01-27T23:23:51.835Z,92.80
2019-01-27T23:26:21.344Z,91.93
2019-01-27T23:28:50.841Z,97.13
2019-01-27T23:31:20.213Z,93.17
2019-01-27T23:33:49.690Z,91.17
2019-01-27T23:36:19.074Z,89.27
2019-01-27T23:38:48.564Z,95.13
2019-01-27T23:41:17.957Z,94.33
2019-01-27T23:43:47.329Z,87.87
2019-01-27T23:46:16.835Z,86.83
2019-01-27T23:48:46.263Z,93.40
2019-01-27T23:51:15.695Z,85.90
2019-01-27T23:53:45.148Z,87.90
2019-01-27T23:56:14.578Z,87.43
2019-01-27T23:58:44.016Z,87.53
